createdAt,value
2022-08-05T00:04:19.553Z,42.70
2022-08-05T00:06:51.901Z,43.10
2022-08-05T00:09:20.310Z,42.80
2022-08-05T00:14:27.728Z,43.60
2022-08-05T00:16:57.677Z,48.20
2022-08-05T00:19:33.523Z,43.80
2022-08-05T00:22:14.001Z,44.40
2022-08-05T00:24:46.058Z,44.60
2022-08-05T00:27:28.510Z,46.20
2022-08-05T00:30:05.152Z,44.80
2022-08-05T00:35:10.783Z,43.40
2022-08-05T00:40:27.086Z,46.00
2022-08-05T00:42:57.706Z,44.50
2022-08-05T00:45:37.779Z,44.40
2022-08-05T00:48:09.344Z,35.50
2022-08-05T00:50:41.417Z,44.80
2022-08-05T00:53:44.930Z,44.40
2022-08-05T00:56:00.683Z,44.90
2022-08-05T01:06:05.597Z,36.00
2022-08-05T01:11:22.248Z,45.10
2022-08-05T01:14:08.795Z,36.60
2022-08-05T01:16:46.153Z,46.40
2022-08-05T01:19:46.116Z,46.30
2022-08-05T01:22:38.598Z,37.60
2022-08-05T01:25:39.603Z,46.10
2022-08-05T01:28:25.304Z,47.60
2022-08-05T01:30:58.006Z,37.00
2022-08-05T01:33:35.383Z,37.20
2022-08-05T01:36:13.055Z,37.50
2022-08-05T01:38:48.558Z,37.70
2022-08-05T01:41:22.355Z,37.60
2022-08-05T01:43:55.735Z,37.40
2022-08-05T01:46:43.142Z,47.60
2022-08-05T01:49:24.285Z,47.90
2022-08-05T01:51:58.155Z,47.80
2022-08-05T01:54:45.725Z,37.70
2022-08-05T01:58:09.845Z,37.90
2022-08-05T02:00:11.703Z,49.00
2022-08-05T02:02:51.139Z,38.10
2022-08-05T02:05:25.569Z,38.20
2022-08-05T02:10:37.502Z,49.30
2022-08-05T02:13:16.143Z,49.10
2022-08-05T02:15:50.835Z,49.10
2022-08-05T02:18:31.858Z,38.40
2022-08-05T02:21:14.856Z,48.50
2022-08-05T02:23:46.003Z,38.90
2022-08-05T02:26:20.213Z,50.30
2022-08-05T02:28:51.105Z,53.60
2022-08-05T02:31:24.531Z,50.40
2022-08-05T02:33:57.314Z,50.00
2022-08-05T02:36:31.669Z,50.60
2022-08-05T02:39:02.818Z,39.60
2022-08-05T02:41:43.370Z,39.70
2022-08-05T02:44:24.390Z,50.20
2022-08-05T02:47:00.346Z,50.50
2022-08-05T02:49:35.868Z,49.50
2022-08-05T02:52:08.850Z,49.30
2022-08-05T02:54:41.375Z,49.50
2022-08-05T02:58:09.654Z,49.60
2022-08-05T03:00:02.478Z,53.90
2022-08-05T03:02:37.802Z,49.70
2022-08-05T03:05:08.812Z,39.90
2022-08-05T03:07:59.373Z,50.50
2022-08-05T03:10:27.930Z,51.40
2022-08-05T03:15:24.588Z,50.80
2022-08-05T03:17:57.452Z,50.30
2022-08-05T03:20:26.358Z,41.50
2022-08-05T03:22:59.573Z,51.40
2022-08-05T03:26:02.596Z,41.90
2022-08-05T03:28:19.906Z,51.20
2022-08-05T03:30:50.888Z,41.10
2022-08-05T03:33:23.627Z,51.80
2022-08-05T03:36:02.894Z,52.30
2022-08-05T03:41:10.725Z,51.20
2022-08-05T03:46:29.950Z,51.90
2022-08-05T03:49:02.114Z,55.80
2022-08-05T03:52:39.291Z,51.90
2022-08-05T03:55:51.763Z,41.80
2022-08-05T03:57:41.728Z,42.10
2022-08-05T04:00:15.482Z,52.30
2022-08-05T04:02:57.903Z,53.10
2022-08-05T04:05:34.655Z,43.70
2022-08-05T04:08:14.774Z,42.60
2022-08-05T04:10:55.862Z,53.10
2022-08-05T04:16:04.489Z,53.80
2022-08-05T04:18:34.511Z,54.10
2022-08-05T04:21:07.495Z,43.00
2022-08-05T04:24:05.014Z,54.10
2022-08-05T04:26:32.363Z,54.00
2022-08-05T04:29:00.822Z,53.90
2022-08-05T04:34:18.414Z,54.20
2022-08-05T04:36:56.948Z,43.80
2022-08-05T04:39:25.047Z,58.20
2022-08-05T04:41:56.094Z,54.60
2022-08-05T04:44:29.394Z,54.90
2022-08-05T04:49:38.108Z,54.40
2022-08-05T04:52:17.250Z,55.90
2022-08-05T04:54:46.859Z,55.60
2022-08-05T04:57:17.384Z,55.50
2022-08-05T04:59:45.371Z,55.00
2022-08-05T05:02:36.408Z,54.60
2022-08-05T05:05:04.367Z,54.10
2022-08-05T05:07:56.672Z,55.00
2022-08-05T05:10:29.712Z,55.50
2022-08-05T05:12:58.190Z,45.30
2022-08-05T05:16:01.746Z,54.30
2022-08-05T05:18:27.950Z,44.50
2022-08-05T05:21:01.232Z,55.00
2022-08-05T05:24:02.525Z,53.30
2022-08-05T05:26:18.683Z,52.50
2022-08-05T05:28:46.765Z,52.10
2022-08-05T05:31:15.030Z,56.60
2022-08-05T05:33:59.346Z,51.20
2022-08-05T05:36:30.165Z,50.30
2022-08-05T05:38:59.635Z,41.90
2022-08-05T05:41:40.017Z,50.50
2022-08-05T05:44:36.033Z,50.00
2022-08-05T05:46:58.022Z,51.20
2022-08-05T05:49:26.274Z,49.10
2022-08-05T05:51:54.568Z,50.10
2022-08-05T05:54:50.537Z,41.20
2022-08-05T06:02:32.370Z,49.00
2022-08-05T06:05:10.432Z,41.00
2022-08-05T06:08:01.362Z,49.70
2022-08-05T06:10:36.262Z,48.80
2022-08-05T06:21:00.709Z,49.20
2022-08-05T06:26:20.720Z,39.80
2022-08-05T06:31:22.155Z,49.70
2022-08-05T06:39:27.638Z,49.70
2022-08-05T06:41:59.285Z,48.80
2022-08-05T06:46:56.334Z,48.90
2022-08-05T06:50:01.128Z,50.10
2022-08-05T06:55:02.509Z,49.60
2022-08-05T06:58:03.933Z,39.70
2022-08-05T07:00:24.510Z,48.40
2022-08-05T07:03:10.995Z,39.70
2022-08-05T07:10:52.355Z,40.00
2022-08-05T07:13:58.179Z,39.90
2022-08-05T07:17:59.468Z,40.20
2022-08-05T07:25:23.027Z,49.00
2022-08-05T07:30:33.658Z,40.30
2022-08-05T07:33:08.854Z,40.80
2022-08-05T07:36:03.318Z,53.20
2022-08-05T07:38:34.170Z,40.30
2022-08-05T07:41:35.244Z,48.80
2022-08-05T07:43:56.438Z,52.80
2022-08-05T07:46:26.981Z,39.90
2022-08-05T07:49:02.269Z,40.30
2022-08-05T07:51:48.984Z,39.90
2022-08-05T07:54:31.598Z,48.40
2022-08-05T08:02:26.777Z,40.40
2022-08-05T08:10:08.719Z,48.80
2022-08-05T08:12:49.773Z,49.80
2022-08-05T08:18:13.820Z,39.90
2022-08-05T08:21:03.379Z,48.10
2022-08-05T08:26:29.523Z,39.20
2022-08-05T08:34:18.647Z,39.50
2022-08-05T08:36:51.925Z,47.50
2022-08-05T08:41:59.832Z,38.90
2022-08-05T08:45:22.306Z,38.50
2022-08-05T08:48:06.404Z,45.90
2022-08-05T08:50:31.749Z,49.80
2022-08-05T08:53:07.950Z,44.30
2022-08-05T08:56:03.117Z,44.10
2022-08-05T08:58:37.562Z,45.70
2022-08-05T09:03:46.581Z,35.40
2022-08-05T09:06:21.240Z,42.30
2022-08-05T09:16:57.981Z,32.90
2022-08-05T09:19:27.848Z,37.90
2022-08-05T09:22:23.110Z,37.90
2022-08-05T09:25:00.689Z,38.00
2022-08-05T09:28:04.479Z,37.20
2022-08-05T09:30:25.700Z,40.60
2022-08-05T09:38:17.146Z,34.90
2022-08-05T09:40:52.721Z,36.10
2022-08-05T09:43:40.578Z,38.50
2022-08-05T09:46:27.551Z,34.20
2022-08-05T09:49:08.349Z,34.10
2022-08-05T09:51:50.001Z,33.40
2022-08-05T09:54:41.562Z,28.50
2022-08-05T09:57:30.496Z,28.00
2022-08-05T10:00:25.942Z,33.60
2022-08-05T10:02:58.284Z,32.10
2022-08-05T10:05:32.691Z,28.40
2022-08-05T10:08:36.706Z,28.40
2022-08-05T10:10:54.342Z,31.20
2022-08-05T10:13:44.140Z,35.00
2022-08-05T10:16:41.876Z,30.40
2022-08-05T10:19:23.560Z,30.60
2022-08-05T10:22:00.659Z,30.00
2022-08-05T10:24:29.126Z,29.90
2022-08-05T10:27:00.322Z,29.00
2022-08-05T10:30:41.063Z,29.40
2022-08-05T10:32:52.053Z,28.90
2022-08-05T10:35:10.769Z,30.20
2022-08-05T10:40:27.694Z,30.00
2022-08-05T10:43:04.535Z,29.90
2022-08-05T10:45:40.461Z,29.40
2022-08-05T10:48:38.341Z,30.50
2022-08-05T10:51:28.500Z,30.90
2022-08-05T10:54:00.911Z,26.50
2022-08-05T10:56:52.853Z,29.60
2022-08-05T11:00:02.988Z,29.10
2022-08-05T11:05:11.104Z,29.40
2022-08-05T11:08:01.761Z,29.70
2022-08-05T11:10:50.184Z,29.60
2022-08-05T11:13:55.005Z,29.60
2022-08-05T11:16:47.757Z,30.40
2022-08-05T11:20:10.473Z,35.00
2022-08-05T11:22:42.141Z,29.10
2022-08-05T11:26:04.654Z,29.10
2022-08-05T11:28:44.463Z,27.20
2022-08-05T11:31:56.520Z,32.20
2022-08-05T11:34:37.622Z,31.40
2022-08-05T11:38:27.776Z,28.80
2022-08-05T11:40:00.390Z,25.90
2022-08-05T11:42:37.835Z,28.70
2022-08-05T11:46:15.278Z,29.10
2022-08-05T11:49:01.075Z,25.10
2022-08-05T11:51:44.539Z,24.50
2022-08-05T11:54:36.548Z,25.10
2022-08-05T11:58:09.298Z,24.20
2022-08-05T12:00:32.460Z,23.30
2022-08-05T12:06:22.845Z,23.00
2022-08-05T12:08:54.820Z,26.50
2022-08-05T12:11:28.289Z,23.30
2022-08-05T12:14:10.310Z,29.30
2022-08-05T12:16:45.188Z,22.80
2022-08-05T12:20:26.059Z,23.50
2022-08-05T12:22:09.647Z,25.70
2022-08-05T12:24:49.346Z,26.20
2022-08-05T12:27:26.615Z,25.50
2022-08-05T12:30:07.794Z,22.30
2022-08-05T12:32:53.446Z,21.70
2022-08-05T12:35:39.483Z,22.50
2022-08-05T12:38:15.953Z,24.50
2022-08-05T12:45:56.854Z,22.70
2022-08-05T12:51:21.598Z,25.60
2022-08-05T12:54:16.685Z,23.30
2022-08-05T12:56:51.164Z,24.80
2022-08-05T12:59:27.582Z,24.50
2022-08-05T13:02:13.304Z,25.40
2022-08-05T13:04:52.486Z,23.10
2022-08-05T13:07:55.973Z,24.50
2022-08-05T13:14:04.539Z,26.00
2022-08-05T13:16:17.371Z,22.60
2022-08-05T13:18:52.724Z,26.70
2022-08-05T13:21:23.369Z,26.30
2022-08-05T13:23:56.705Z,34.70
2022-08-05T13:26:30.112Z,27.00
2022-08-05T13:28:59.455Z,27.10
2022-08-05T13:31:33.981Z,24.80
2022-08-05T13:34:25.027Z,27.80
2022-08-05T13:36:54.720Z,27.80
2022-08-05T13:40:13.569Z,25.70
2022-08-05T13:42:14.364Z,36.70
2022-08-05T13:44:45.717Z,25.60
2022-08-05T13:52:35.437Z,25.00
2022-08-05T13:55:07.277Z,28.50
2022-08-05T13:57:51.548Z,28.20
2022-08-05T14:00:27.607Z,25.20
2022-08-05T14:03:01.145Z,25.90
2022-08-05T14:08:21.343Z,28.60
2022-08-05T14:11:03.287Z,27.70
2022-08-05T14:13:48.153Z,24.90
2022-08-05T14:19:06.580Z,25.20
2022-08-05T14:22:09.042Z,26.50
2022-08-05T14:24:28.030Z,28.60
2022-08-05T14:27:18.706Z,25.40
2022-08-05T14:30:28.441Z,25.60
2022-08-05T14:32:59.479Z,29.50
2022-08-05T14:35:37.290Z,30.30
2022-08-05T14:38:32.267Z,31.60
2022-08-05T14:41:06.369Z,29.50
2022-08-05T14:43:57.704Z,31.00
2022-08-05T14:46:28.209Z,32.70
2022-08-05T14:49:08.092Z,26.70
2022-08-05T14:51:37.985Z,26.70
2022-08-05T14:56:55.022Z,26.30
2022-08-05T15:04:29.792Z,26.20
2022-08-05T15:07:01.613Z,25.80
2022-08-05T15:12:19.598Z,31.00
2022-08-05T15:17:45.807Z,26.70
2022-08-05T15:20:18.492Z,31.00
2022-08-05T15:22:53.995Z,36.30
2022-08-05T15:25:23.424Z,31.10
2022-08-05T15:28:09.051Z,31.40
2022-08-05T15:33:56.678Z,26.60
2022-08-05T15:36:04.063Z,30.50
2022-08-05T15:38:36.647Z,27.70
2022-08-05T15:41:23.284Z,31.20
2022-08-05T15:43:54.654Z,31.10
2022-08-05T15:46:24.186Z,28.00
2022-08-05T15:49:01.463Z,32.20
2022-08-05T15:52:09.739Z,35.60
2022-08-05T15:54:35.063Z,28.10
2022-08-05T15:57:07.697Z,37.80
2022-08-05T15:59:36.394Z,37.80
2022-08-05T16:02:09.762Z,27.90
2022-08-05T16:04:43.489Z,32.20
2022-08-05T16:07:13.489Z,31.50
2022-08-05T16:09:42.092Z,32.00
2022-08-05T16:12:12.098Z,32.60
2022-08-05T16:14:40.481Z,32.10
2022-08-05T16:17:09.387Z,32.30
2022-08-05T16:20:05.378Z,36.20
2022-08-05T16:22:27.854Z,28.80
2022-08-05T16:25:17.700Z,29.00
2022-08-05T16:28:04.916Z,32.40
2022-08-05T16:30:36.091Z,33.20
2022-08-05T16:33:06.190Z,37.20
2022-08-05T16:35:42.508Z,33.60
2022-08-05T16:38:25.596Z,33.20
2022-08-05T16:41:00.335Z,36.80
2022-08-05T16:43:31.106Z,28.50
2022-08-05T16:46:05.335Z,34.50
2022-08-05T16:48:37.593Z,38.10
2022-08-05T16:51:09.098Z,33.70
2022-08-05T16:54:05.897Z,33.70
2022-08-05T16:56:30.122Z,29.10
2022-08-05T16:59:08.107Z,33.20
2022-08-05T17:01:53.576Z,35.10
2022-08-05T17:04:26.050Z,34.30
2022-08-05T17:07:11.621Z,33.90
2022-08-05T17:09:57.539Z,33.90
2022-08-05T17:15:19.654Z,28.50
2022-08-05T17:17:55.073Z,33.30
2022-08-05T17:20:25.052Z,34.00
2022-08-05T17:22:55.713Z,33.40
2022-08-05T17:25:39.304Z,29.30
2022-08-05T17:28:16.596Z,34.40
2022-08-05T17:33:23.131Z,33.90
2022-08-05T17:36:08.110Z,28.70
2022-08-05T17:41:11.597Z,34.10
2022-08-05T17:51:27.137Z,28.60
2022-08-05T17:53:55.176Z,38.50
2022-08-05T17:56:28.618Z,29.20
2022-08-05T18:01:28.213Z,28.60
2022-08-05T18:04:18.615Z,34.40
2022-08-05T18:06:49.942Z,34.20
2022-08-05T18:09:18.213Z,30.10
2022-08-05T18:11:52.369Z,33.60
2022-08-05T18:14:20.901Z,29.70
2022-08-05T18:16:52.652Z,29.50
2022-08-05T18:19:25.902Z,33.80
2022-08-05T18:22:07.837Z,29.00
2022-08-05T18:27:25.594Z,28.50
2022-08-05T18:34:58.244Z,34.20
2022-08-05T18:37:34.581Z,34.40
2022-08-05T18:40:33.633Z,29.30
2022-08-05T18:43:03.260Z,33.00
2022-08-05T18:45:41.649Z,29.90
2022-08-05T18:48:11.387Z,34.20
2022-08-05T18:51:01.905Z,29.20
2022-08-05T18:53:52.049Z,34.10
2022-08-05T18:56:21.871Z,33.70
2022-08-05T18:59:01.900Z,29.00
2022-08-05T19:01:57.091Z,35.30
2022-08-05T19:09:23.761Z,33.80
2022-08-05T19:15:02.710Z,28.50
2022-08-05T19:20:21.665Z,33.40
2022-08-05T19:27:59.927Z,34.40
2022-08-05T19:30:29.659Z,34.50
2022-08-05T19:32:57.670Z,34.40
2022-08-05T19:35:27.476Z,34.70
2022-08-05T19:38:15.618Z,34.00
2022-08-05T19:40:52.189Z,34.60
2022-08-05T19:44:04.028Z,38.60
2022-08-05T19:46:29.006Z,29.30
2022-08-05T19:49:03.187Z,34.80
2022-08-05T19:52:13.241Z,34.30
2022-08-05T19:54:26.685Z,34.50
2022-08-05T19:56:59.429Z,29.50
2022-08-05T19:59:56.515Z,35.40
2022-08-05T20:02:40.539Z,35.40
2022-08-05T20:05:24.171Z,35.60
2022-08-05T20:08:00.315Z,28.80
2022-08-05T20:18:33.173Z,34.90
2022-08-05T20:21:06.973Z,30.40
2022-08-05T20:23:39.397Z,40.20
2022-08-05T20:28:48.679Z,35.40
2022-08-05T20:31:17.623Z,35.60
2022-08-05T20:33:52.004Z,29.20
2022-08-05T20:36:24.125Z,30.00
2022-08-05T20:41:43.257Z,29.30
2022-08-05T20:49:29.531Z,29.70
2022-08-05T20:52:01.559Z,32.70
2022-08-05T20:54:55.391Z,36.10
2022-08-05T20:57:24.912Z,30.50
2022-08-05T21:00:19.783Z,37.00
2022-08-05T21:03:01.293Z,31.10
2022-08-05T21:05:47.542Z,31.20
2022-08-05T21:08:41.859Z,32.20
2022-08-05T21:17:07.444Z,33.60
2022-08-05T21:20:09.855Z,35.20
2022-08-05T21:23:14.183Z,34.90
2022-08-05T21:35:18.171Z,37.50
2022-08-05T21:38:06.315Z,45.70
2022-08-05T21:40:45.163Z,39.30
2022-08-05T21:45:57.759Z,41.40
2022-08-05T21:56:34.000Z,44.90
2022-08-05T22:00:04.997Z,45.70
2022-08-05T22:02:46.026Z,45.20
2022-08-05T22:05:27.219Z,47.00
2022-08-05T22:08:02.467Z,53.20
2022-08-05T22:10:31.189Z,55.70
2022-08-05T22:13:08.978Z,55.90
2022-08-05T22:16:02.691Z,60.80
2022-08-05T22:24:40.515Z,49.90
2022-08-05T22:30:35.671Z,58.80
2022-08-05T22:33:04.554Z,59.00
2022-08-05T22:35:49.159Z,59.50
2022-08-05T22:38:19.598Z,59.90
2022-08-05T22:40:49.885Z,60.50
2022-08-05T22:46:12.034Z,61.40
2022-08-05T22:51:22.491Z,61.80
2022-08-05T23:01:50.778Z,53.80
2022-08-05T23:06:50.028Z,69.80
2022-08-05T23:12:06.982Z,65.80
2022-08-05T23:14:35.273Z,66.60
2022-08-05T23:17:24.339Z,55.60
2022-08-05T23:20:00.888Z,55.20
2022-08-05T23:30:11.951Z,65.20
2022-08-05T23:32:45.221Z,53.70
2022-08-05T23:35:21.559Z,54.30
2022-08-05T23:48:03.216Z,56.30
2022-08-05T23:55:31.560Z,69.10
2022-08-05T23:57:59.777Z,68.80
